sensor_id;sensor_type;location;lat;lon;timestamp;P1;durP1;ratioP1;P2;durP2;ratioP2
19883;SDS011;10104;50.732;10.174;2022-12-18T00:00:20;22.77;;;11.37;;
19883;SDS011;10104;50.732;10.174;2022-12-18T00:02:42;24.93;;;11.70;;
19883;SDS011;10104;50.732;10.174;2022-12-18T00:05:05;22.97;;;12.90;;
19883;SDS011;10104;50.732;10.174;2022-12-18T00:07:27;28.90;;;13.33;;
19883;SDS011;10104;50.732;10.174;2022-12-18T00:09:48;23.97;;;12.03;;
19883;SDS011;10104;50.732;10.174;2022-12-18T00:12:10;21.07;;;11.30;;
19883;SDS011;10104;50.732;10.174;2022-12-18T00:14:35;21.10;;;9.87;;
19883;SDS011;10104;50.732;10.174;2022-12-18T00:17:01;20.33;;;10.47;;
19883;SDS011;10104;50.732;10.174;2022-12-18T00:19:23;25.00;;;12.93;;
19883;SDS011;10104;50.732;10.174;2022-12-18T00:21:45;26.50;;;12.33;;
19883;SDS011;10104;50.732;10.174;2022-12-18T00:24:06;29.67;;;14.23;;
19883;SDS011;10104;50.732;10.174;2022-12-18T00:26:29;30.73;;;16.47;;
19883;SDS011;10104;50.732;10.174;2022-12-18T00:28:53;26.83;;;13.83;;
19883;SDS011;10104;50.732;10.174;2022-12-18T00:31:16;38.47;;;17.00;;
19883;SDS011;10104;50.732;10.174;2022-12-18T00:33:39;25.60;;;13.10;;
19883;SDS011;10104;50.732;10.174;2022-12-18T00:36:02;27.13;;;12.53;;
19883;SDS011;10104;50.732;10.174;2022-12-18T00:38:28;26.33;;;13.03;;
19883;SDS011;10104;50.732;10.174;2022-12-18T00:40:50;28.03;;;14.17;;
19883;SDS011;10104;50.732;10.174;2022-12-18T00:43:11;32.80;;;15.97;;
19883;SDS011;10104;50.732;10.174;2022-12-18T00:45:33;28.57;;;13.57;;
19883;SDS011;10104;50.732;10.174;2022-12-18T00:47:54;28.37;;;13.30;;
19883;SDS011;10104;50.732;10.174;2022-12-18T00:50:16;22.07;;;10.83;;
19883;SDS011;10104;50.732;10.174;2022-12-18T00:52:38;28.03;;;13.47;;
19883;SDS011;10104;50.732;10.174;2022-12-18T00:55:00;22.53;;;11.27;;
19883;SDS011;10104;50.732;10.174;2022-12-18T00:57:26;24.33;;;11.30;;
19883;SDS011;10104;50.732;10.174;2022-12-18T00:59:48;24.60;;;11.17;;
19883;SDS011;10104;50.732;10.174;2022-12-18T01:02:09;22.40;;;11.77;;
19883;SDS011;10104;50.732;10.174;2022-12-18T01:04:31;23.33;;;11.10;;
19883;SDS011;10104;50.732;10.174;2022-12-18T01:06:54;23.70;;;11.23;;
19883;SDS011;10104;50.732;10.174;2022-12-18T01:09:15;20.03;;;10.43;;
19883;SDS011;10104;50.732;10.174;2022-12-18T01:11:37;20.07;;;11.23;;
19883;SDS011;10104;50.732;10.174;2022-12-18T01:13:58;19.70;;;10.97;;
19883;SDS011;10104;50.732;10.174;2022-12-18T01:16:20;15.10;;;9.30;;
19883;SDS011;10104;50.732;10.174;2022-12-18T01:18:42;17.27;;;9.60;;
19883;SDS011;10104;50.732;10.174;2022-12-18T01:21:11;18.70;;;9.53;;
19883;SDS011;10104;50.732;10.174;2022-12-18T01:23:34;18.73;;;9.80;;
19883;SDS011;10104;50.732;10.174;2022-12-18T01:25:56;18.60;;;9.43;;
19883;SDS011;10104;50.732;10.174;2022-12-18T01:28:19;16.97;;;8.97;;
19883;SDS011;10104;50.732;10.174;2022-12-18T01:30:40;17.60;;;10.17;;
19883;SDS011;10104;50.732;10.174;2022-12-18T01:33:03;18.00;;;9.57;;
19883;SDS011;10104;50.732;10.174;2022-12-18T01:35:26;18.10;;;9.33;;
19883;SDS011;10104;50.732;10.174;2022-12-18T01:37:47;17.37;;;9.40;;
19883;SDS011;10104;50.732;10.174;2022-12-18T01:40:09;18.77;;;9.80;;
19883;SDS011;10104;50.732;10.174;2022-12-18T01:42:31;18.20;;;9.30;;
19883;SDS011;10104;50.732;10.174;2022-12-18T01:47:36;20.10;;;9.43;;
19883;SDS011;10104;50.732;10.174;2022-12-18T01:50:07;16.50;;;9.83;;
19883;SDS011;10104;50.732;10.174;2022-12-18T01:52:39;20.97;;;9.80;;
19883;SDS011;10104;50.732;10.174;2022-12-18T01:55:08;20.20;;;9.67;;
19883;SDS011;10104;50.732;10.174;2022-12-18T01:57:32;18.63;;;10.20;;
19883;SDS011;10104;50.732;10.174;2022-12-18T01:59:54;17.43;;;9.37;;
19883;SDS011;10104;50.732;10.174;2022-12-18T02:02:20;20.30;;;11.17;;
19883;SDS011;10104;50.732;10.174;2022-12-18T02:04:42;16.87;;;8.93;;
19883;SDS011;10104;50.732;10.174;2022-12-18T02:09:56;17.73;;;9.40;;
19883;SDS011;10104;50.732;10.174;2022-12-18T02:12:21;16.63;;;8.37;;
19883;SDS011;10104;50.732;10.174;2022-12-18T02:14:57;15.87;;;8.53;;
19883;SDS011;10104;50.732;10.174;2022-12-18T02:28:05;17.80;;;8.93;;
19883;SDS011;10104;50.732;10.174;2022-12-18T02:30:31;14.63;;;8.60;;
19883;SDS011;10104;50.732;10.174;2022-12-18T02:32:55;16.53;;;9.37;;
19883;SDS011;10104;50.732;10.174;2022-12-18T02:35:23;17.50;;;9.50;;
19883;SDS011;10104;50.732;10.174;2022-12-18T02:37:48;16.60;;;8.47;;
19883;SDS011;10104;50.732;10.174;2022-12-18T02:40:10;16.97;;;9.13;;
19883;SDS011;10104;50.732;10.174;2022-12-18T02:42:33;15.80;;;8.50;;
19883;SDS011;10104;50.732;10.174;2022-12-18T02:44:55;16.40;;;9.27;;
19883;SDS011;10104;50.732;10.174;2022-12-18T02:47:18;17.40;;;9.13;;
19883;SDS011;10104;50.732;10.174;2022-12-18T02:52:12;18.07;;;9.07;;
19883;SDS011;10104;50.732;10.174;2022-12-18T02:57:24;18.53;;;9.03;;
19883;SDS011;10104;50.732;10.174;2022-12-18T02:59:58;20.77;;;10.27;;
19883;SDS011;10104;50.732;10.174;2022-12-18T03:05:14;21.03;;;10.03;;
19883;SDS011;10104;50.732;10.174;2022-12-18T03:07:50;19.53;;;10.10;;
19883;SDS011;10104;50.732;10.174;2022-12-18T03:10:17;19.07;;;9.00;;
19883;SDS011;10104;50.732;10.174;2022-12-18T03:12:44;19.27;;;9.57;;
19883;SDS011;10104;50.732;10.174;2022-12-18T03:15:13;22.63;;;10.13;;
19883;SDS011;10104;50.732;10.174;2022-12-18T03:17:40;16.57;;;9.77;;
19883;SDS011;10104;50.732;10.174;2022-12-18T03:20:07;18.87;;;9.20;;
19883;SDS011;10104;50.732;10.174;2022-12-18T03:22:33;17.40;;;9.13;;
19883;SDS011;10104;50.732;10.174;2022-12-18T03:24:58;21.47;;;10.10;;
19883;SDS011;10104;50.732;10.174;2022-12-18T03:27:24;17.43;;;9.37;;
19883;SDS011;10104;50.732;10.174;2022-12-18T03:29:49;19.57;;;9.23;;
19883;SDS011;10104;50.732;10.174;2022-12-18T03:32:39;15.13;;;8.40;;
19883;SDS011;10104;50.732;10.174;2022-12-18T03:35:05;17.87;;;10.07;;
19883;SDS011;10104;50.732;10.174;2022-12-18T03:37:27;19.00;;;9.57;;
19883;SDS011;10104;50.732;10.174;2022-12-18T03:39:49;20.23;;;9.73;;
19883;SDS011;10104;50.732;10.174;2022-12-18T03:42:15;20.00;;;9.70;;
19883;SDS011;10104;50.732;10.174;2022-12-18T03:50:21;21.87;;;10.03;;
19883;SDS011;10104;50.732;10.174;2022-12-18T03:55:18;17.70;;;9.50;;
19883;SDS011;10104;50.732;10.174;2022-12-18T03:57:42;22.30;;;10.23;;
19883;SDS011;10104;50.732;10.174;2022-12-18T04:00:07;17.50;;;9.70;;
19883;SDS011;10104;50.732;10.174;2022-12-18T04:02:31;22.23;;;9.93;;
19883;SDS011;10104;50.732;10.174;2022-12-18T04:04:56;17.93;;;9.90;;
19883;SDS011;10104;50.732;10.174;2022-12-18T04:07:22;17.47;;;9.37;;
19883;SDS011;10104;50.732;10.174;2022-12-18T04:09:45;17.83;;;9.37;;
19883;SDS011;10104;50.732;10.174;2022-12-18T04:12:09;21.30;;;10.33;;
19883;SDS011;10104;50.732;10.174;2022-12-18T04:14:30;18.37;;;9.73;;
19883;SDS011;10104;50.732;10.174;2022-12-18T04:16:56;27.00;;;10.73;;
19883;SDS011;10104;50.732;10.174;2022-12-18T04:19:18;19.03;;;9.40;;
19883;SDS011;10104;50.732;10.174;2022-12-18T04:21:39;21.77;;;10.30;;
19883;SDS011;10104;50.732;10.174;2022-12-18T04:24:01;16.43;;;9.73;;
19883;SDS011;10104;50.732;10.174;2022-12-18T04:26:22;17.77;;;9.40;;
19883;SDS011;10104;50.732;10.174;2022-12-18T04:28:44;19.47;;;10.63;;
19883;SDS011;10104;50.732;10.174;2022-12-18T04:31:05;20.90;;;10.70;;
19883;SDS011;10104;50.732;10.174;2022-12-18T04:33:27;19.70;;;10.30;;
19883;SDS011;10104;50.732;10.174;2022-12-18T04:35:49;23.23;;;10.40;;
19883;SDS011;10104;50.732;10.174;2022-12-18T04:38:10;15.47;;;9.03;;
19883;SDS011;10104;50.732;10.174;2022-12-18T04:40:32;21.80;;;9.33;;
19883;SDS011;10104;50.732;10.174;2022-12-18T04:42:55;15.83;;;8.93;;
19883;SDS011;10104;50.732;10.174;2022-12-18T04:45:17;17.00;;;9.07;;
19883;SDS011;10104;50.732;10.174;2022-12-18T04:47:38;17.43;;;9.17;;
19883;SDS011;10104;50.732;10.174;2022-12-18T04:50:00;19.97;;;9.77;;
19883;SDS011;10104;50.732;10.174;2022-12-18T04:52:21;17.23;;;9.80;;
19883;SDS011;10104;50.732;10.174;2022-12-18T04:54:46;18.00;;;9.40;;
19883;SDS011;10104;50.732;10.174;2022-12-18T04:57:07;19.90;;;9.53;;
19883;SDS011;10104;50.732;10.174;2022-12-18T04:59:29;20.57;;;9.37;;
19883;SDS011;10104;50.732;10.174;2022-12-18T05:01:50;20.20;;;9.60;;
19883;SDS011;10104;50.732;10.174;2022-12-18T05:04:12;19.13;;;9.60;;
19883;SDS011;10104;50.732;10.174;2022-12-18T05:06:33;20.87;;;9.50;;
19883;SDS011;10104;50.732;10.174;2022-12-18T05:08:55;21.10;;;9.63;;
19883;SDS011;10104;50.732;10.174;2022-12-18T05:11:17;20.90;;;9.83;;
19883;SDS011;10104;50.732;10.174;2022-12-18T05:13:39;21.13;;;9.20;;
19883;SDS011;10104;50.732;10.174;2022-12-18T05:16:01;17.17;;;8.93;;
19883;SDS011;10104;50.732;10.174;2022-12-18T05:18:23;22.97;;;10.13;;
19883;SDS011;10104;50.732;10.174;2022-12-18T05:20:45;18.97;;;9.23;;
19883;SDS011;10104;50.732;10.174;2022-12-18T05:23:07;22.53;;;9.77;;
19883;SDS011;10104;50.732;10.174;2022-12-18T05:25:28;15.43;;;8.77;;
19883;SDS011;10104;50.732;10.174;2022-12-18T05:27:50;16.30;;;9.20;;
19883;SDS011;10104;50.732;10.174;2022-12-18T05:30:12;17.97;;;9.80;;
19883;SDS011;10104;50.732;10.174;2022-12-18T05:32:35;18.50;;;9.33;;
19883;SDS011;10104;50.732;10.174;2022-12-18T05:34:56;18.77;;;9.13;;
19883;SDS011;10104;50.732;10.174;2022-12-18T05:37:18;17.07;;;9.10;;
19883;SDS011;10104;50.732;10.174;2022-12-18T05:39:39;17.80;;;9.20;;
19883;SDS011;10104;50.732;10.174;2022-12-18T05:42:01;19.77;;;10.43;;
19883;SDS011;10104;50.732;10.174;2022-12-18T05:44:22;17.17;;;9.37;;
19883;SDS011;10104;50.732;10.174;2022-12-18T05:46:44;26.50;;;14.37;;
19883;SDS011;10104;50.732;10.174;2022-12-18T05:49:06;29.87;;;15.13;;
19883;SDS011;10104;50.732;10.174;2022-12-18T05:51:27;23.23;;;12.53;;
19883;SDS011;10104;50.732;10.174;2022-12-18T05:53:49;20.87;;;12.23;;
19883;SDS011;10104;50.732;10.174;2022-12-18T05:56:12;25.23;;;13.37;;
19883;SDS011;10104;50.732;10.174;2022-12-18T05:58:35;24.07;;;12.57;;
19883;SDS011;10104;50.732;10.174;2022-12-18T06:00:58;20.50;;;12.20;;
19883;SDS011;10104;50.732;10.174;2022-12-18T06:03:26;19.13;;;10.07;;
19883;SDS011;10104;50.732;10.174;2022-12-18T06:05:54;18.87;;;10.70;;
19883;SDS011;10104;50.732;10.174;2022-12-18T06:08:15;18.80;;;10.17;;
19883;SDS011;10104;50.732;10.174;2022-12-18T06:10:37;16.40;;;9.13;;
19883;SDS011;10104;50.732;10.174;2022-12-18T06:12:59;20.20;;;10.03;;
19883;SDS011;10104;50.732;10.174;2022-12-18T06:15:21;18.37;;;9.63;;
19883;SDS011;10104;50.732;10.174;2022-12-18T06:17:43;20.50;;;9.60;;
19883;SDS011;10104;50.732;10.174;2022-12-18T06:20:05;21.60;;;9.83;;
19883;SDS011;10104;50.732;10.174;2022-12-18T06:22:28;22.10;;;10.37;;
19883;SDS011;10104;50.732;10.174;2022-12-18T06:24:52;19.93;;;9.37;;
19883;SDS011;10104;50.732;10.174;2022-12-18T06:27:13;21.90;;;10.00;;
19883;SDS011;10104;50.732;10.174;2022-12-18T06:29:35;19.17;;;9.90;;
19883;SDS011;10104;50.732;10.174;2022-12-18T06:31:56;21.47;;;10.37;;
19883;SDS011;10104;50.732;10.174;2022-12-18T06:34:18;21.77;;;10.23;;
19883;SDS011;10104;50.732;10.174;2022-12-18T06:36:40;19.77;;;9.27;;
19883;SDS011;10104;50.732;10.174;2022-12-18T06:39:01;14.77;;;9.03;;
19883;SDS011;10104;50.732;10.174;2022-12-18T06:41:23;19.00;;;9.60;;
19883;SDS011;10104;50.732;10.174;2022-12-18T06:43:44;20.07;;;9.37;;
19883;SDS011;10104;50.732;10.174;2022-12-18T06:46:06;14.80;;;8.40;;
19883;SDS011;10104;50.732;10.174;2022-12-18T06:48:28;17.73;;;8.17;;
19883;SDS011;10104;50.732;10.174;2022-12-18T06:50:50;16.73;;;8.83;;
19883;SDS011;10104;50.732;10.174;2022-12-18T06:53:12;20.83;;;9.10;;
19883;SDS011;10104;50.732;10.174;2022-12-18T06:55:33;17.27;;;9.00;;
19883;SDS011;10104;50.732;10.174;2022-12-18T06:57:55;20.83;;;9.53;;
19883;SDS011;10104;50.732;10.174;2022-12-18T07:00:16;21.17;;;9.20;;
19883;SDS011;10104;50.732;10.174;2022-12-18T07:02:38;17.07;;;8.53;;
19883;SDS011;10104;50.732;10.174;2022-12-18T07:05:00;19.50;;;10.13;;
19883;SDS011;10104;50.732;10.174;2022-12-18T07:07:29;20.43;;;10.00;;
19883;SDS011;10104;50.732;10.174;2022-12-18T07:09:50;21.20;;;9.03;;
19883;SDS011;10104;50.732;10.174;2022-12-18T07:12:12;20.07;;;8.80;;
19883;SDS011;10104;50.732;10.174;2022-12-18T07:14:34;19.00;;;8.70;;
19883;SDS011;10104;50.732;10.174;2022-12-18T07:16:55;16.97;;;8.40;;
19883;SDS011;10104;50.732;10.174;2022-12-18T07:19:17;19.37;;;8.50;;
19883;SDS011;10104;50.732;10.174;2022-12-18T07:21:38;17.80;;;8.13;;
19883;SDS011;10104;50.732;10.174;2022-12-18T07:24:00;17.07;;;9.17;;
19883;SDS011;10104;50.732;10.174;2022-12-18T07:26:22;20.17;;;9.03;;
19883;SDS011;10104;50.732;10.174;2022-12-18T07:28:44;14.27;;;7.77;;
19883;SDS011;10104;50.732;10.174;2022-12-18T07:31:06;14.97;;;7.67;;
19883;SDS011;10104;50.732;10.174;2022-12-18T07:33:29;18.67;;;8.83;;
19883;SDS011;10104;50.732;10.174;2022-12-18T07:35:51;19.27;;;10.40;;
19883;SDS011;10104;50.732;10.174;2022-12-18T07:38:12;21.43;;;9.37;;
19883;SDS011;10104;50.732;10.174;2022-12-18T07:40:34;27.23;;;10.70;;
19883;SDS011;10104;50.732;10.174;2022-12-18T07:42:55;19.77;;;9.70;;
19883;SDS011;10104;50.732;10.174;2022-12-18T07:45:17;18.70;;;10.27;;
19883;SDS011;10104;50.732;10.174;2022-12-18T07:47:38;19.63;;;9.70;;
19883;SDS011;10104;50.732;10.174;2022-12-18T07:50:03;16.40;;;8.90;;
19883;SDS011;10104;50.732;10.174;2022-12-18T07:52:25;19.80;;;11.30;;
19883;SDS011;10104;50.732;10.174;2022-12-18T07:54:47;29.03;;;14.03;;
19883;SDS011;10104;50.732;10.174;2022-12-18T07:57:11;21.57;;;9.93;;
19883;SDS011;10104;50.732;10.174;2022-12-18T07:59:52;22.07;;;10.70;;
19883;SDS011;10104;50.732;10.174;2022-12-18T08:02:14;27.87;;;14.10;;
19883;SDS011;10104;50.732;10.174;2022-12-18T08:04:36;22.70;;;10.87;;
19883;SDS011;10104;50.732;10.174;2022-12-18T08:06:57;19.37;;;10.30;;
19883;SDS011;10104;50.732;10.174;2022-12-18T08:09:19;22.80;;;10.23;;
19883;SDS011;10104;50.732;10.174;2022-12-18T08:11:40;21.17;;;10.30;;
19883;SDS011;10104;50.732;10.174;2022-12-18T08:14:02;18.77;;;9.43;;
19883;SDS011;10104;50.732;10.174;2022-12-18T08:16:23;20.00;;;9.10;;
19883;SDS011;10104;50.732;10.174;2022-12-18T08:18:45;20.10;;;9.87;;
19883;SDS011;10104;50.732;10.174;2022-12-18T08:21:17;20.70;;;9.93;;
19883;SDS011;10104;50.732;10.174;2022-12-18T08:23:42;16.17;;;8.97;;
19883;SDS011;10104;50.732;10.174;2022-12-18T08:26:04;20.00;;;9.90;;
19883;SDS011;10104;50.732;10.174;2022-12-18T08:28:25;23.50;;;10.83;;
19883;SDS011;10104;50.732;10.174;2022-12-18T08:30:51;18.97;;;9.77;;
19883;SDS011;10104;50.732;10.174;2022-12-18T08:33:13;23.63;;;10.47;;
19883;SDS011;10104;50.732;10.174;2022-12-18T08:35:35;18.77;;;8.73;;
19883;SDS011;10104;50.732;10.174;2022-12-18T08:38:05;18.27;;;9.43;;
19883;SDS011;10104;50.732;10.174;2022-12-18T08:40:27;22.53;;;9.77;;
19883;SDS011;10104;50.732;10.174;2022-12-18T08:42:48;21.87;;;10.57;;
19883;SDS011;10104;50.732;10.174;2022-12-18T08:45:28;22.57;;;11.20;;
19883;SDS011;10104;50.732;10.174;2022-12-18T08:47:50;20.07;;;10.83;;
19883;SDS011;10104;50.732;10.174;2022-12-18T08:50:11;19.47;;;10.13;;
19883;SDS011;10104;50.732;10.174;2022-12-18T08:52:33;19.40;;;9.07;;
19883;SDS011;10104;50.732;10.174;2022-12-18T08:54:54;18.33;;;9.73;;
19883;SDS011;10104;50.732;10.174;2022-12-18T08:57:16;19.30;;;9.43;;
19883;SDS011;10104;50.732;10.174;2022-12-18T08:59:38;17.73;;;8.33;;
19883;SDS011;10104;50.732;10.174;2022-12-18T09:01:59;21.37;;;9.70;;
19883;SDS011;10104;50.732;10.174;2022-12-18T09:04:21;18.50;;;8.73;;
19883;SDS011;10104;50.732;10.174;2022-12-18T09:06:43;16.70;;;8.00;;
19883;SDS011;10104;50.732;10.174;2022-12-18T09:09:05;14.47;;;7.70;;
19883;SDS011;10104;50.732;10.174;2022-12-18T09:11:28;17.23;;;8.03;;
19883;SDS011;10104;50.732;10.174;2022-12-18T09:13:50;17.73;;;8.60;;
19883;SDS011;10104;50.732;10.174;2022-12-18T09:16:12;17.20;;;7.50;;
19883;SDS011;10104;50.732;10.174;2022-12-18T09:18:34;17.50;;;8.10;;
19883;SDS011;10104;50.732;10.174;2022-12-18T09:20:55;20.00;;;8.00;;
19883;SDS011;10104;50.732;10.174;2022-12-18T09:23:17;17.33;;;7.77;;
19883;SDS011;10104;50.732;10.174;2022-12-18T09:25:39;17.80;;;7.83;;
19883;SDS011;10104;50.732;10.174;2022-12-18T09:28:04;15.30;;;7.83;;
19883;SDS011;10104;50.732;10.174;2022-12-18T09:30:27;14.63;;;6.77;;
19883;SDS011;10104;50.732;10.174;2022-12-18T09:32:49;13.10;;;7.30;;
19883;SDS011;10104;50.732;10.174;2022-12-18T09:35:11;14.93;;;7.60;;
19883;SDS011;10104;50.732;10.174;2022-12-18T09:37:33;14.03;;;7.00;;
19883;SDS011;10104;50.732;10.174;2022-12-18T09:39:54;13.00;;;7.53;;
19883;SDS011;10104;50.732;10.174;2022-12-18T09:42:22;15.73;;;7.67;;
19883;SDS011;10104;50.732;10.174;2022-12-18T09:44:44;19.60;;;8.73;;
19883;SDS011;10104;50.732;10.174;2022-12-18T09:47:11;16.40;;;7.57;;
19883;SDS011;10104;50.732;10.174;2022-12-18T09:49:40;15.73;;;7.23;;
19883;SDS011;10104;50.732;10.174;2022-12-18T09:52:08;15.10;;;7.87;;
19883;SDS011;10104;50.732;10.174;2022-12-18T09:54:40;15.93;;;7.83;;
19883;SDS011;10104;50.732;10.174;2022-12-18T09:57:04;15.17;;;8.40;;
19883;SDS011;10104;50.732;10.174;2022-12-18T09:59:27;14.93;;;8.30;;
19883;SDS011;10104;50.732;10.174;2022-12-18T10:01:55;16.90;;;7.90;;
19883;SDS011;10104;50.732;10.174;2022-12-18T10:04:17;15.37;;;7.90;;
19883;SDS011;10104;50.732;10.174;2022-12-18T10:09:29;13.57;;;7.67;;
19883;SDS011;10104;50.732;10.174;2022-12-18T10:12:08;14.60;;;7.83;;
19883;SDS011;10104;50.732;10.174;2022-12-18T10:14:44;17.87;;;8.37;;
19883;SDS011;10104;50.732;10.174;2022-12-18T10:17:22;12.67;;;6.90;;
19883;SDS011;10104;50.732;10.174;2022-12-18T10:19:56;12.83;;;6.93;;
19883;SDS011;10104;50.732;10.174;2022-12-18T10:25:04;12.70;;;7.80;;
19883;SDS011;10104;50.732;10.174;2022-12-18T10:27:38;16.40;;;8.10;;
19883;SDS011;10104;50.732;10.174;2022-12-18T10:29:59;13.13;;;7.97;;
19883;SDS011;10104;50.732;10.174;2022-12-18T10:32:28;13.40;;;7.93;;
19883;SDS011;10104;50.732;10.174;2022-12-18T10:34:52;15.93;;;8.80;;
19883;SDS011;10104;50.732;10.174;2022-12-18T10:37:22;16.87;;;8.37;;
19883;SDS011;10104;50.732;10.174;2022-12-18T10:40:04;14.13;;;8.10;;
19883;SDS011;10104;50.732;10.174;2022-12-18T10:42:30;15.33;;;8.10;;
19883;SDS011;10104;50.732;10.174;2022-12-18T10:45:00;14.47;;;8.57;;
19883;SDS011;10104;50.732;10.174;2022-12-18T10:47:24;13.87;;;8.47;;
19883;SDS011;10104;50.732;10.174;2022-12-18T10:49:49;17.43;;;8.70;;
19883;SDS011;10104;50.732;10.174;2022-12-18T10:52:14;14.80;;;8.23;;
19883;SDS011;10104;50.732;10.174;2022-12-18T10:54:53;14.63;;;8.30;;
19883;SDS011;10104;50.732;10.174;2022-12-18T10:57:33;15.30;;;8.77;;
19883;SDS011;10104;50.732;10.174;2022-12-18T10:59:59;15.10;;;8.43;;
19883;SDS011;10104;50.732;10.174;2022-12-18T11:02:39;17.77;;;8.77;;
19883;SDS011;10104;50.732;10.174;2022-12-18T11:05:02;17.10;;;8.53;;
19883;SDS011;10104;50.732;10.174;2022-12-18T11:07:47;18.43;;;8.77;;
19883;SDS011;10104;50.732;10.174;2022-12-18T11:10:14;17.97;;;8.37;;
19883;SDS011;10104;50.732;10.174;2022-12-18T11:12:40;15.63;;;8.60;;
19883;SDS011;10104;50.732;10.174;2022-12-18T11:15:01;19.00;;;8.23;;
19883;SDS011;10104;50.732;10.174;2022-12-18T11:17:30;17.50;;;8.50;;
19883;SDS011;10104;50.732;10.174;2022-12-18T11:19:57;15.23;;;8.30;;
19883;SDS011;10104;50.732;10.174;2022-12-18T11:24:53;14.97;;;8.27;;
19883;SDS011;10104;50.732;10.174;2022-12-18T11:27:38;18.17;;;8.73;;
19883;SDS011;10104;50.732;10.174;2022-12-18T11:32:41;17.83;;;9.23;;
19883;SDS011;10104;50.732;10.174;2022-12-18T11:37:31;17.10;;;8.90;;
19883;SDS011;10104;50.732;10.174;2022-12-18T11:43:14;14.50;;;8.90;;
19883;SDS011;10104;50.732;10.174;2022-12-18T11:45:41;15.20;;;8.60;;
19883;SDS011;10104;50.732;10.174;2022-12-18T11:48:14;17.67;;;9.60;;
19883;SDS011;10104;50.732;10.174;2022-12-18T11:50:43;15.20;;;7.90;;
19883;SDS011;10104;50.732;10.174;2022-12-18T11:53:10;17.70;;;8.73;;
19883;SDS011;10104;50.732;10.174;2022-12-18T12:00:35;17.93;;;8.83;;
19883;SDS011;10104;50.732;10.174;2022-12-18T12:05:43;16.43;;;9.50;;
19883;SDS011;10104;50.732;10.174;2022-12-18T12:08:20;13.63;;;8.33;;
19883;SDS011;10104;50.732;10.174;2022-12-18T12:21:49;17.67;;;9.13;;
19883;SDS011;10104;50.732;10.174;2022-12-18T12:26:49;17.67;;;9.70;;
19883;SDS011;10104;50.732;10.174;2022-12-18T12:29:28;17.00;;;8.93;;
19883;SDS011;10104;50.732;10.174;2022-12-18T12:35:02;14.57;;;8.17;;
19883;SDS011;10104;50.732;10.174;2022-12-18T12:40:46;17.87;;;7.87;;
19883;SDS011;10104;50.732;10.174;2022-12-18T12:43:25;15.03;;;7.83;;
19883;SDS011;10104;50.732;10.174;2022-12-18T12:46:10;14.57;;;8.20;;
19883;SDS011;10104;50.732;10.174;2022-12-18T12:51:09;17.37;;;8.83;;
19883;SDS011;10104;50.732;10.174;2022-12-18T12:53:37;17.87;;;9.93;;
19883;SDS011;10104;50.732;10.174;2022-12-18T12:56:01;17.40;;;9.53;;
19883;SDS011;10104;50.732;10.174;2022-12-18T13:04:12;18.40;;;9.27;;
19883;SDS011;10104;50.732;10.174;2022-12-18T13:09:21;18.10;;;8.73;;
19883;SDS011;10104;50.732;10.174;2022-12-18T13:11:46;17.00;;;9.33;;
19883;SDS011;10104;50.732;10.174;2022-12-18T13:14:29;18.77;;;8.97;;
19883;SDS011;10104;50.732;10.174;2022-12-18T13:19:49;16.70;;;9.27;;
19883;SDS011;10104;50.732;10.174;2022-12-18T13:24:49;15.37;;;8.53;;
19883;SDS011;10104;50.732;10.174;2022-12-18T13:30:02;14.90;;;7.90;;
19883;SDS011;10104;50.732;10.174;2022-12-18T13:32:44;19.97;;;9.73;;
19883;SDS011;10104;50.732;10.174;2022-12-18T13:37:42;17.33;;;9.60;;
19883;SDS011;10104;50.732;10.174;2022-12-18T13:40:24;16.20;;;8.77;;
19883;SDS011;10104;50.732;10.174;2022-12-18T13:45:43;16.80;;;8.80;;
19883;SDS011;10104;50.732;10.174;2022-12-18T13:48:14;17.33;;;8.93;;
19883;SDS011;10104;50.732;10.174;2022-12-18T13:50:42;18.87;;;9.30;;
19883;SDS011;10104;50.732;10.174;2022-12-18T13:53:04;18.83;;;9.17;;
19883;SDS011;10104;50.732;10.174;2022-12-18T13:55:26;18.03;;;9.43;;
19883;SDS011;10104;50.732;10.174;2022-12-18T13:57:48;16.90;;;8.73;;
19883;SDS011;10104;50.732;10.174;2022-12-18T14:02:44;18.07;;;9.20;;
19883;SDS011;10104;50.732;10.174;2022-12-18T14:05:20;13.77;;;8.60;;
19883;SDS011;10104;50.732;10.174;2022-12-18T14:07:44;18.43;;;9.17;;
19883;SDS011;10104;50.732;10.174;2022-12-18T14:10:11;16.00;;;9.03;;
19883;SDS011;10104;50.732;10.174;2022-12-18T14:12:56;17.73;;;9.10;;
19883;SDS011;10104;50.732;10.174;2022-12-18T14:17:47;16.83;;;9.70;;
19883;SDS011;10104;50.732;10.174;2022-12-18T14:20:14;17.30;;;8.73;;
19883;SDS011;10104;50.732;10.174;2022-12-18T14:22:36;21.50;;;10.63;;
19883;SDS011;10104;50.732;10.174;2022-12-18T14:25:06;16.73;;;8.73;;
19883;SDS011;10104;50.732;10.174;2022-12-18T14:27:37;20.03;;;9.90;;
19883;SDS011;10104;50.732;10.174;2022-12-18T14:29:59;17.20;;;9.53;;
19883;SDS011;10104;50.732;10.174;2022-12-18T14:32:20;19.50;;;9.93;;
19883;SDS011;10104;50.732;10.174;2022-12-18T14:34:43;16.40;;;9.13;;
19883;SDS011;10104;50.732;10.174;2022-12-18T14:37:12;18.03;;;9.50;;
19883;SDS011;10104;50.732;10.174;2022-12-18T14:39:36;19.57;;;9.90;;
19883;SDS011;10104;50.732;10.174;2022-12-18T14:41:58;18.43;;;9.60;;
19883;SDS011;10104;50.732;10.174;2022-12-18T14:44:20;18.90;;;9.37;;
19883;SDS011;10104;50.732;10.174;2022-12-18T14:46:43;16.93;;;10.03;;
19883;SDS011;10104;50.732;10.174;2022-12-18T14:51:46;15.70;;;9.00;;
19883;SDS011;10104;50.732;10.174;2022-12-18T14:54:17;19.27;;;9.73;;
19883;SDS011;10104;50.732;10.174;2022-12-18T14:56:47;17.37;;;9.87;;
19883;SDS011;10104;50.732;10.174;2022-12-18T14:59:15;20.83;;;9.90;;
19883;SDS011;10104;50.732;10.174;2022-12-18T15:04:23;18.97;;;9.43;;
19883;SDS011;10104;50.732;10.174;2022-12-18T15:06:45;21.70;;;10.13;;
19883;SDS011;10104;50.732;10.174;2022-12-18T15:09:23;17.63;;;9.87;;
19883;SDS011;10104;50.732;10.174;2022-12-18T15:11:46;20.13;;;9.90;;
19883;SDS011;10104;50.732;10.174;2022-12-18T15:14:28;17.60;;;9.93;;
19883;SDS011;10104;50.732;10.174;2022-12-18T15:17:03;17.50;;;9.60;;
19883;SDS011;10104;50.732;10.174;2022-12-18T15:19:39;18.70;;;9.53;;
19883;SDS011;10104;50.732;10.174;2022-12-18T15:22:02;18.73;;;9.97;;
19883;SDS011;10104;50.732;10.174;2022-12-18T15:24:29;15.63;;;8.37;;
19883;SDS011;10104;50.732;10.174;2022-12-18T15:26:52;16.67;;;9.00;;
19883;SDS011;10104;50.732;10.174;2022-12-18T15:29:19;17.50;;;8.83;;
19883;SDS011;10104;50.732;10.174;2022-12-18T15:31:44;17.97;;;9.93;;
19883;SDS011;10104;50.732;10.174;2022-12-18T15:34:21;19.30;;;10.03;;
19883;SDS011;10104;50.732;10.174;2022-12-18T15:36:44;21.67;;;10.50;;
19883;SDS011;10104;50.732;10.174;2022-12-18T15:39:06;18.07;;;9.80;;
19883;SDS011;10104;50.732;10.174;2022-12-18T15:41:27;17.13;;;9.17;;
19883;SDS011;10104;50.732;10.174;2022-12-18T15:43:49;17.67;;;9.47;;
19883;SDS011;10104;50.732;10.174;2022-12-18T15:46:13;17.03;;;8.73;;
19883;SDS011;10104;50.732;10.174;2022-12-18T15:48:37;18.90;;;10.20;;
19883;SDS011;10104;50.732;10.174;2022-12-18T15:51:01;21.57;;;10.10;;
19883;SDS011;10104;50.732;10.174;2022-12-18T15:53:23;19.00;;;10.00;;
19883;SDS011;10104;50.732;10.174;2022-12-18T15:55:46;19.20;;;10.07;;